True Blue, Vermont
Current Conditions -  °F | °C
As of 8:55 AM on Wednesday 28 Jan 2015 (Local Time) from K6B0 Reporting Station
Broken Clouds Broken Clouds  
Wind Chill: -7°   Ceiling: 9000
Heat Index: 10°   Visibility: 10mi
Dew Point: -2°   Wind: 14mph
Humidity: 61%   Direction: 360°N
Pressure: 30.08"   Gusts: 24mph
Location:  43.6518°N, 73.0368°W
Report Text: K6B0 281355Z AUTO 36012G21KT 10SM SCT029 BKN090 M12/M19 A3008 RMK AO2 T11251187
Loading
Personal Weather Stations






























Interactive Weather Map New forecast layout! Learn more

10-Day Weather Forecast

Advertisements
Track Severe Weather on mobile